createdAt,value
2023-03-22T00:00:21.379Z,90.82
2023-03-22T00:01:10.795Z,90.91
2023-03-22T00:01:58.944Z,91.21
2023-03-22T00:02:46.088Z,91.41
2023-03-22T00:03:33.177Z,91.40
2023-03-22T00:04:20.270Z,91.20
2023-03-22T00:05:07.698Z,91.01
2023-03-22T00:05:58.658Z,90.80
2023-03-22T00:06:45.909Z,90.66
2023-03-22T00:07:32.973Z,90.77
2023-03-22T00:08:19.958Z,90.97
2023-03-22T00:09:07.037Z,90.94
2023-03-22T00:09:54.039Z,90.67
2023-03-22T00:10:42.068Z,90.34
2023-03-22T00:11:29.123Z,90.46
2023-03-22T00:12:16.222Z,90.38
2023-03-22T00:13:03.381Z,90.21
2023-03-22T00:13:52.811Z,90.24
2023-03-22T00:14:39.756Z,90.22
2023-03-22T00:15:29.804Z,90.36
2023-03-22T00:16:17.735Z,90.59
2023-03-22T00:17:04.755Z,90.80
2023-03-22T00:17:52.093Z,90.75
2023-03-22T00:18:39.102Z,91.48
2023-03-22T00:19:26.871Z,92.37
2023-03-22T00:20:13.977Z,92.93
2023-03-22T00:21:01.241Z,93.13
2023-03-22T00:21:48.257Z,92.67
2023-03-22T00:22:35.288Z,92.21
2023-03-22T00:23:23.430Z,91.63
2023-03-22T00:24:10.473Z,91.45
2023-03-22T00:24:57.499Z,91.14
2023-03-22T00:25:45.469Z,90.88
2023-03-22T00:26:32.490Z,90.87
2023-03-22T00:27:19.346Z,90.74
2023-03-22T00:28:06.368Z,91.24
2023-03-22T00:28:53.290Z,92.12
2023-03-22T00:29:40.293Z,92.30
2023-03-22T00:30:27.228Z,93.11
2023-03-22T00:31:14.338Z,93.17
2023-03-22T00:32:01.469Z,94.35
2023-03-22T00:32:48.448Z,94.11
2023-03-22T00:33:36.567Z,93.92
2023-03-22T00:34:23.721Z,93.71
2023-03-22T00:35:12.014Z,94.05
2023-03-22T00:36:01.476Z,94.20
2023-03-22T00:36:48.754Z,93.59
2023-03-22T00:37:38.886Z,93.18
2023-03-22T00:38:41.257Z,92.73
2023-03-22T00:39:28.874Z,92.65
2023-03-22T00:40:18.147Z,92.74
2023-03-22T00:41:25.608Z,92.50
2023-03-22T00:42:12.566Z,92.41
2023-03-22T00:43:00.011Z,92.37
2023-03-22T00:43:47.743Z,92.43
2023-03-22T00:44:34.851Z,92.25
2023-03-22T00:45:21.841Z,92.29
2023-03-22T00:46:09.876Z,92.35
2023-03-22T00:46:56.970Z,92.48
2023-03-22T00:47:43.998Z,92.58
2023-03-22T00:48:31.544Z,92.91
2023-03-22T00:49:19.201Z,92.87
2023-03-22T00:50:07.533Z,93.17
2023-03-22T00:50:54.562Z,93.13
2023-03-22T00:51:41.485Z,92.94
2023-03-22T00:52:29.854Z,92.44
2023-03-22T00:53:17.150Z,92.38
2023-03-22T00:54:04.162Z,92.57
2023-03-22T00:54:51.652Z,92.58
2023-03-22T00:55:38.651Z,92.49
2023-03-22T00:56:29.173Z,92.65
2023-03-22T00:57:16.590Z,92.71
2023-03-22T00:58:03.681Z,93.94
2023-03-22T00:58:50.791Z,94.66
2023-03-22T00:59:39.088Z,95.89
2023-03-22T01:00:26.364Z,96.23
2023-03-22T01:01:16.592Z,96.45
2023-03-22T01:02:04.492Z,96.20
2023-03-22T01:02:53.511Z,95.80
2023-03-22T01:03:41.640Z,95.47
2023-03-22T01:04:28.883Z,95.05
2023-03-22T01:05:16.292Z,95.03
2023-03-22T01:06:03.890Z,95.03
2023-03-22T01:06:50.860Z,94.93
2023-03-22T01:07:39.842Z,94.81
2023-03-22T01:08:33.244Z,94.73
2023-03-22T01:09:24.185Z,94.92
2023-03-22T01:10:12.401Z,95.33
2023-03-22T01:10:59.822Z,95.40
2023-03-22T01:11:46.852Z,95.21
2023-03-22T01:12:33.889Z,95.37
2023-03-22T01:13:20.946Z,95.15
2023-03-22T01:14:09.976Z,94.72
2023-03-22T01:14:57.193Z,94.38
2023-03-22T01:15:44.229Z,94.27
2023-03-22T01:16:31.250Z,94.53
2023-03-22T01:17:18.352Z,94.57
2023-03-22T01:18:05.803Z,94.60
2023-03-22T01:18:52.797Z,95.39
2023-03-22T01:19:40.126Z,95.41
2023-03-22T01:20:27.860Z,94.83
2023-03-22T01:21:14.872Z,94.84
2023-03-22T01:22:02.516Z,94.50
2023-03-22T01:22:49.575Z,94.32
2023-03-22T01:23:37.122Z,94.20
2023-03-22T01:24:24.508Z,94.07
2023-03-22T01:25:11.618Z,94.18
2023-03-22T01:25:58.688Z,94.66
2023-03-22T01:26:45.938Z,94.75
2023-03-22T01:27:32.921Z,94.67
2023-03-22T01:28:19.966Z,94.69
2023-03-22T01:29:06.978Z,95.29
2023-03-22T01:29:53.947Z,96.25
2023-03-22T01:30:41.676Z,96.95
2023-03-22T01:31:28.993Z,96.78
2023-03-22T01:32:16.114Z,96.79
2023-03-22T01:33:03.106Z,96.64
2023-03-22T01:33:50.177Z,96.15
2023-03-22T01:34:37.165Z,95.60
2023-03-22T01:35:24.473Z,95.34
2023-03-22T01:36:11.738Z,95.07
2023-03-22T01:36:58.726Z,94.82
2023-03-22T01:37:45.949Z,94.91
2023-03-22T01:38:33.009Z,94.92
2023-03-22T01:39:20.060Z,94.78
2023-03-22T01:40:07.677Z,95.25
2023-03-22T01:40:54.796Z,94.94
2023-03-22T01:41:41.840Z,94.50
2023-03-22T01:42:28.931Z,94.23
2023-03-22T01:43:17.425Z,93.82
2023-03-22T01:44:18.380Z,93.54
2023-03-22T01:45:14.074Z,93.16
2023-03-22T01:46:01.184Z,93.15
2023-03-22T01:46:49.844Z,93.17
2023-03-22T01:47:37.834Z,92.98
2023-03-22T01:48:37.479Z,92.92
2023-03-22T01:49:32.269Z,93.07
2023-03-22T01:50:20.064Z,93.22
2023-03-22T01:51:13.747Z,93.26
2023-03-22T01:52:12.091Z,93.24
2023-03-22T01:52:59.855Z,93.75
2023-03-22T01:53:49.523Z,93.57
2023-03-22T01:54:45.069Z,93.29
2023-03-22T01:55:33.552Z,93.58
2023-03-22T01:56:23.203Z,93.74
2023-03-22T01:57:10.263Z,93.70
2023-03-22T01:57:57.219Z,93.95
2023-03-22T01:58:44.123Z,94.78
2023-03-22T01:59:31.435Z,95.32
2023-03-22T02:00:19.344Z,95.15
2023-03-22T02:01:08.527Z,94.92
2023-03-22T02:01:56.000Z,94.66
2023-03-22T02:02:44.462Z,94.45
2023-03-22T02:03:57.781Z,94.39
2023-03-22T02:04:46.322Z,94.17
2023-03-22T02:05:35.129Z,94.78
2023-03-22T02:06:22.426Z,95.50
2023-03-22T02:07:15.872Z,96.40
2023-03-22T02:08:04.164Z,96.83
2023-03-22T02:08:53.252Z,96.55
2023-03-22T02:09:41.695Z,96.90
2023-03-22T02:10:28.992Z,96.88
2023-03-22T02:11:28.342Z,96.23
2023-03-22T02:12:20.800Z,96.14
2023-03-22T02:13:39.179Z,96.26
2023-03-22T02:15:03.921Z,95.66
2023-03-22T02:16:16.118Z,95.95
2023-03-22T02:17:30.322Z,95.68
2023-03-22T02:18:22.377Z,95.35
2023-03-22T02:19:31.172Z,95.11
2023-03-22T02:20:33.242Z,94.91
2023-03-22T02:21:36.243Z,95.21
2023-03-22T02:22:58.540Z,95.65
2023-03-22T02:24:24.973Z,96.07
2023-03-22T02:25:46.129Z,95.13
2023-03-22T02:26:59.647Z,95.86
2023-03-22T02:28:04.630Z,95.76
2023-03-22T02:29:22.782Z,95.63
2023-03-22T02:30:50.764Z,95.08
2023-03-22T02:32:25.894Z,94.73
2023-03-22T02:33:27.526Z,94.98
2023-03-22T02:34:36.122Z,95.92
2023-03-22T02:35:54.221Z,95.67
2023-03-22T02:36:47.519Z,95.36
2023-03-22T02:38:12.328Z,94.71
2023-03-22T02:39:17.980Z,94.09
2023-03-22T02:40:05.852Z,93.81
2023-03-22T02:41:12.522Z,93.75
2023-03-22T02:42:41.414Z,93.95
2023-03-22T02:43:39.025Z,94.31
2023-03-22T02:45:01.441Z,95.07
2023-03-22T02:45:54.711Z,94.84
2023-03-22T02:46:52.008Z,94.51
2023-03-22T02:47:57.034Z,94.57
2023-03-22T02:48:54.671Z,94.87
2023-03-22T02:49:47.747Z,95.51
2023-03-22T02:50:46.789Z,95.85
2023-03-22T02:51:41.874Z,95.57
2023-03-22T02:52:33.464Z,95.38
2023-03-22T02:53:23.475Z,95.12
2023-03-22T02:54:18.680Z,94.82
2023-03-22T02:55:12.860Z,94.30
2023-03-22T02:56:02.864Z,94.04
2023-03-22T02:57:19.461Z,94.09
2023-03-22T02:58:47.330Z,94.50
2023-03-22T02:59:38.420Z,95.13
2023-03-22T03:00:27.346Z,95.49
2023-03-22T03:01:32.829Z,95.71
2023-03-22T03:02:21.146Z,96.15
2023-03-22T03:03:12.076Z,96.04
2023-03-22T03:04:01.787Z,95.49
2023-03-22T03:04:50.337Z,95.23
2023-03-22T03:05:40.582Z,94.91
2023-03-22T03:06:31.318Z,94.71
2023-03-22T03:07:23.234Z,94.72
2023-03-22T03:08:11.488Z,94.70
2023-03-22T03:09:02.853Z,94.74
2023-03-22T03:09:50.849Z,94.58
2023-03-22T03:10:39.746Z,94.95
2023-03-22T03:11:26.830Z,95.00
2023-03-22T03:12:16.710Z,95.57
2023-03-22T03:13:03.888Z,96.25
2023-03-22T03:13:51.491Z,96.44
2023-03-22T03:14:38.478Z,96.69
2023-03-22T03:15:26.212Z,96.87
2023-03-22T03:16:17.862Z,96.87
2023-03-22T03:17:10.790Z,96.41
2023-03-22T03:18:27.711Z,95.81
2023-03-22T03:19:29.951Z,95.32
2023-03-22T03:20:35.619Z,95.12
2023-03-22T03:21:54.356Z,95.12
2023-03-22T03:22:53.842Z,96.14
2023-03-22T03:23:53.310Z,95.76
2023-03-22T03:24:48.628Z,96.03
2023-03-22T03:25:43.643Z,96.56
2023-03-22T03:26:55.823Z,96.89
2023-03-22T03:28:13.119Z,96.46
2023-03-22T03:29:05.626Z,96.32
2023-03-22T03:30:05.701Z,96.29
2023-03-22T03:31:08.421Z,95.88
2023-03-22T03:32:05.512Z,95.67
2023-03-22T03:33:05.321Z,95.99
2023-03-22T03:33:58.966Z,95.94
2023-03-22T03:34:58.122Z,95.68
2023-03-22T03:35:50.174Z,96.22
2023-03-22T03:36:41.047Z,96.77
2023-03-22T03:37:34.270Z,97.30
2023-03-22T03:38:27.458Z,98.02
2023-03-22T03:39:16.314Z,97.98
2023-03-22T03:40:11.409Z,97.44
2023-03-22T03:41:14.380Z,97.23
2023-03-22T03:42:02.321Z,97.23
2023-03-22T03:42:52.059Z,96.90
2023-03-22T03:43:39.663Z,96.87
2023-03-22T03:44:27.316Z,96.78
2023-03-22T03:45:16.032Z,96.60
2023-03-22T03:46:03.298Z,96.69
2023-03-22T03:46:51.459Z,96.79
2023-03-22T03:47:38.552Z,96.79
2023-03-22T03:48:29.052Z,96.92
2023-03-22T03:49:17.234Z,97.33
2023-03-22T03:50:08.484Z,97.62
2023-03-22T03:50:56.912Z,97.33
2023-03-22T03:51:55.351Z,97.09
2023-03-22T03:52:42.930Z,96.94
2023-03-22T03:53:30.772Z,96.69
2023-03-22T03:54:18.221Z,96.67
2023-03-22T03:55:05.571Z,96.99
2023-03-22T03:55:52.558Z,97.03
2023-03-22T03:56:39.547Z,96.83
2023-03-22T03:57:26.511Z,97.48
2023-03-22T03:58:13.451Z,97.97
2023-03-22T03:59:00.662Z,97.95
2023-03-22T03:59:47.702Z,98.31
2023-03-22T04:00:34.703Z,98.21
2023-03-22T04:01:21.718Z,97.74
2023-03-22T04:02:08.968Z,97.50
2023-03-22T04:02:56.117Z,97.12
2023-03-22T04:03:43.124Z,97.10
2023-03-22T04:04:30.330Z,97.35
2023-03-22T04:05:17.396Z,97.45
2023-03-22T04:06:04.473Z,98.01
2023-03-22T04:06:52.174Z,98.25
2023-03-22T04:07:39.770Z,98.28
2023-03-22T04:08:27.319Z,98.11
2023-03-22T04:09:14.361Z,97.74
2023-03-22T04:10:01.397Z,97.48
2023-03-22T04:10:52.486Z,96.87
2023-03-22T04:11:39.448Z,96.92
2023-03-22T04:12:26.483Z,97.00
2023-03-22T04:13:13.513Z,96.77
2023-03-22T04:14:00.503Z,96.46
2023-03-22T04:14:47.511Z,96.40
2023-03-22T04:15:34.483Z,96.53
2023-03-22T04:16:21.559Z,96.86
2023-03-22T04:17:09.782Z,97.14
2023-03-22T04:17:57.310Z,97.20
2023-03-22T04:18:44.536Z,97.07
2023-03-22T04:19:31.632Z,97.17
2023-03-22T04:20:19.769Z,97.82
2023-03-22T04:21:07.267Z,97.86
2023-03-22T04:21:54.688Z,97.80
2023-03-22T04:22:42.553Z,97.93
2023-03-22T04:23:29.612Z,98.61
2023-03-22T04:24:16.612Z,98.18
2023-03-22T04:25:03.924Z,97.99
2023-03-22T04:25:50.874Z,97.97
2023-03-22T04:26:38.122Z,97.88
2023-03-22T04:27:25.091Z,97.85
2023-03-22T04:28:13.912Z,97.59
2023-03-22T04:29:03.217Z,98.06
2023-03-22T04:29:51.325Z,97.82
2023-03-22T04:30:39.184Z,97.63
2023-03-22T04:31:26.562Z,97.31
2023-03-22T04:32:13.594Z,96.99
2023-03-22T04:33:01.563Z,97.00
2023-03-22T04:33:50.008Z,97.36
2023-03-22T04:34:37.059Z,98.40
2023-03-22T04:35:24.808Z,98.95
2023-03-22T04:36:16.292Z,99.18
2023-03-22T04:37:03.353Z,99.04
2023-03-22T04:37:51.917Z,99.44
2023-03-22T04:38:39.780Z,100.00
2023-03-22T04:39:26.892Z,99.62
2023-03-22T04:40:17.448Z,99.18
2023-03-22T04:41:05.744Z,98.95
2023-03-22T04:41:52.654Z,99.12
2023-03-22T04:42:39.651Z,99.25
2023-03-22T04:43:27.651Z,99.48
2023-03-22T04:44:14.740Z,100.00
2023-03-22T04:45:04.166Z,100.00
2023-03-22T04:45:51.119Z,100.00
2023-03-22T04:46:38.660Z,100.00
2023-03-22T04:47:25.783Z,100.00
2023-03-22T04:48:12.832Z,100.00
2023-03-22T04:49:00.161Z,100.00
2023-03-22T04:49:47.174Z,99.92
2023-03-22T04:50:34.082Z,100.00
2023-03-22T04:51:21.178Z,99.98
2023-03-22T04:52:08.390Z,99.41
2023-03-22T04:52:55.550Z,99.59
2023-03-22T04:53:42.631Z,99.32
2023-03-22T04:54:29.614Z,99.66
2023-03-22T04:55:16.813Z,100.00
2023-03-22T04:56:05.860Z,100.00
2023-03-22T04:56:53.185Z,100.00
2023-03-22T04:57:40.149Z,100.00
2023-03-22T04:58:27.514Z,100.00
2023-03-22T04:59:14.962Z,100.00
2023-03-22T05:00:01.953Z,100.00
2023-03-22T05:00:48.991Z,100.00
2023-03-22T05:01:36.186Z,100.00
2023-03-22T05:02:23.182Z,100.00
2023-03-22T05:03:10.617Z,100.00
2023-03-22T05:03:57.647Z,100.00
2023-03-22T05:04:45.082Z,100.00
2023-03-22T05:05:32.240Z,100.00
2023-03-22T05:06:19.204Z,100.00
2023-03-22T05:07:06.362Z,99.91
2023-03-22T05:07:53.351Z,99.82
2023-03-22T05:08:40.571Z,99.50
2023-03-22T05:09:27.602Z,99.45
2023-03-22T05:10:14.791Z,99.09
2023-03-22T05:11:07.783Z,99.00
2023-03-22T05:11:54.714Z,99.11
2023-03-22T05:12:41.700Z,99.18
2023-03-22T05:13:28.632Z,99.36
2023-03-22T05:14:15.874Z,99.33
2023-03-22T05:15:04.489Z,99.05
2023-03-22T05:15:52.306Z,98.83
2023-03-22T05:16:42.079Z,98.83
2023-03-22T05:17:29.050Z,98.95
2023-03-22T05:18:16.911Z,98.94
2023-03-22T05:19:04.160Z,99.05
2023-03-22T05:19:52.113Z,98.73
2023-03-22T05:20:39.413Z,98.30
2023-03-22T05:21:29.984Z,97.65
2023-03-22T05:22:17.471Z,97.10
2023-03-22T05:23:05.380Z,96.88
2023-03-22T05:23:52.421Z,96.79
2023-03-22T05:24:39.453Z,96.58
2023-03-22T05:25:26.456Z,96.42
2023-03-22T05:26:16.269Z,96.33
2023-03-22T05:27:04.027Z,96.35
2023-03-22T05:27:54.437Z,96.18
2023-03-22T05:28:41.730Z,96.20
2023-03-22T05:29:29.109Z,96.03
2023-03-22T05:30:16.977Z,95.65
2023-03-22T05:31:05.834Z,95.56
2023-03-22T05:31:52.958Z,95.64
2023-03-22T05:32:43.369Z,95.56
2023-03-22T05:33:30.403Z,95.55
2023-03-22T05:34:17.628Z,95.40
2023-03-22T05:35:05.604Z,95.15
2023-03-22T05:35:52.760Z,94.94
2023-03-22T05:36:39.989Z,94.91
2023-03-22T05:37:26.971Z,95.00
2023-03-22T05:38:13.960Z,94.96
2023-03-22T05:39:00.842Z,94.85
2023-03-22T05:39:47.956Z,94.63
2023-03-22T05:40:34.969Z,94.69
2023-03-22T05:41:22.274Z,94.72
2023-03-22T05:42:09.254Z,94.63
2023-03-22T05:42:56.333Z,94.43
2023-03-22T05:43:43.314Z,94.37
2023-03-22T05:44:30.515Z,94.15
2023-03-22T05:45:17.893Z,93.94
2023-03-22T05:46:06.824Z,93.82
2023-03-22T05:46:53.882Z,93.36
2023-03-22T05:47:41.891Z,93.28
2023-03-22T05:48:28.944Z,93.26
2023-03-22T05:49:16.277Z,93.38
2023-03-22T05:50:03.417Z,93.44
2023-03-22T05:50:50.390Z,93.41
2023-03-22T05:51:41.873Z,93.26
2023-03-22T05:52:29.059Z,92.85
2023-03-22T05:53:16.364Z,92.67
2023-03-22T05:54:03.295Z,92.18
2023-03-22T05:54:50.260Z,92.45
2023-03-22T05:55:37.268Z,92.71
2023-03-22T05:56:24.680Z,93.04
2023-03-22T05:57:11.758Z,93.30
2023-03-22T05:57:59.979Z,93.65
2023-03-22T05:58:47.165Z,94.08
2023-03-22T05:59:34.334Z,94.07
2023-03-22T06:00:22.079Z,93.86
2023-03-22T06:01:11.852Z,93.84
2023-03-22T06:01:58.904Z,94.04
2023-03-22T06:02:48.088Z,93.75
2023-03-22T06:03:35.244Z,93.22
2023-03-22T06:04:22.487Z,93.16
2023-03-22T06:05:11.430Z,93.22
2023-03-22T06:05:58.407Z,93.20
2023-03-22T06:06:45.379Z,92.88
2023-03-22T06:07:32.329Z,92.63
2023-03-22T06:08:19.236Z,92.58
2023-03-22T06:09:16.376Z,92.53
2023-03-22T06:10:04.829Z,92.39
2023-03-22T06:10:52.628Z,92.40
2023-03-22T06:11:39.551Z,92.69
2023-03-22T06:12:29.540Z,92.57
2023-03-22T06:13:18.148Z,92.32
2023-03-22T06:14:05.174Z,92.02
2023-03-22T06:14:52.676Z,91.96
2023-03-22T06:15:39.658Z,92.10
2023-03-22T06:16:26.859Z,91.96
2023-03-22T06:17:13.887Z,91.89
2023-03-22T06:18:00.967Z,91.81
2023-03-22T06:18:48.064Z,91.92
2023-03-22T06:19:35.055Z,92.02
2023-03-22T06:20:22.079Z,92.07
2023-03-22T06:21:09.102Z,92.10
2023-03-22T06:21:56.131Z,92.11
2023-03-22T06:22:43.170Z,91.88
2023-03-22T06:23:30.143Z,91.63
2023-03-22T06:24:17.215Z,91.35
2023-03-22T06:25:44.525Z,91.23
2023-03-22T06:26:31.481Z,90.81
2023-03-22T06:27:18.437Z,90.43
2023-03-22T06:28:07.552Z,90.63
2023-03-22T06:28:55.510Z,91.00
2023-03-22T06:29:42.446Z,91.00
2023-03-22T06:30:29.575Z,90.72
2023-03-22T06:31:16.519Z,90.87
2023-03-22T06:32:04.002Z,91.00
2023-03-22T06:32:50.903Z,91.09
2023-03-22T06:33:37.804Z,90.72
2023-03-22T06:34:24.666Z,89.78
2023-03-22T06:35:11.605Z,89.37
2023-03-22T06:35:59.944Z,88.71
2023-03-22T06:36:47.040Z,88.56
2023-03-22T06:37:33.880Z,88.66
2023-03-22T06:38:20.802Z,88.60
2023-03-22T06:39:08.193Z,88.35
2023-03-22T06:39:55.078Z,88.05
2023-03-22T06:40:42.229Z,88.07
2023-03-22T06:41:29.311Z,87.93
2023-03-22T06:42:16.409Z,87.35
2023-03-22T06:43:06.974Z,87.14
2023-03-22T06:43:53.908Z,87.08
2023-03-22T06:44:44.066Z,86.82
2023-03-22T06:45:33.605Z,86.33
2023-03-22T06:46:22.743Z,85.02
2023-03-22T06:47:09.809Z,85.07
2023-03-22T06:47:58.747Z,84.65
2023-03-22T06:48:45.763Z,84.49
2023-03-22T06:49:32.628Z,84.18
2023-03-22T06:50:19.481Z,84.24
2023-03-22T06:51:06.811Z,83.89
2023-03-22T06:51:54.107Z,83.45
2023-03-22T06:52:40.972Z,83.58
2023-03-22T06:53:27.928Z,83.52
2023-03-22T06:54:16.246Z,83.16
2023-03-22T06:55:03.246Z,82.83
2023-03-22T06:55:50.162Z,82.26
2023-03-22T06:56:37.020Z,81.94
2023-03-22T06:57:23.852Z,81.36
2023-03-22T06:58:10.891Z,81.29
2023-03-22T06:58:58.726Z,81.11
2023-03-22T06:59:45.774Z,80.65
2023-03-22T07:00:34.485Z,79.78
2023-03-22T07:01:21.877Z,79.19
2023-03-22T07:02:12.026Z,79.56
2023-03-22T07:03:01.708Z,79.63
2023-03-22T07:03:48.647Z,78.90
2023-03-22T07:04:35.606Z,78.45
2023-03-22T07:05:22.578Z,77.61
2023-03-22T07:06:09.674Z,75.12
2023-03-22T07:06:57.149Z,75.47
2023-03-22T07:07:44.086Z,74.80
2023-03-22T07:08:31.317Z,73.89
2023-03-22T07:09:18.568Z,71.23
2023-03-22T07:10:10.019Z,71.04
2023-03-22T07:10:57.152Z,69.26
2023-03-22T07:11:44.011Z,71.12
2023-03-22T07:12:30.868Z,70.37
2023-03-22T07:13:17.934Z,70.01
2023-03-22T07:14:04.867Z,69.98
2023-03-22T07:14:51.815Z,69.04
2023-03-22T07:15:38.736Z,67.74
2023-03-22T07:16:25.943Z,66.51
2023-03-22T07:17:14.350Z,65.80
2023-03-22T07:18:02.180Z,65.17
2023-03-22T07:18:49.170Z,64.43
2023-03-22T07:19:36.284Z,63.22
2023-03-22T07:20:25.187Z,62.81
2023-03-22T07:21:12.475Z,61.55
2023-03-22T07:21:59.382Z,61.51
2023-03-22T07:22:46.711Z,61.69
2023-03-22T07:23:33.588Z,61.68
2023-03-22T07:24:20.546Z,61.30
2023-03-22T07:25:07.796Z,60.65
2023-03-22T07:25:56.275Z,60.66
2023-03-22T07:26:43.361Z,60.15
2023-03-22T07:27:30.237Z,60.15
2023-03-22T07:28:17.197Z,59.77
2023-03-22T07:29:04.077Z,58.95
2023-03-22T07:29:51.196Z,58.32
2023-03-22T07:30:39.051Z,58.80
2023-03-22T07:31:26.298Z,59.11
2023-03-22T07:32:13.266Z,59.65
2023-03-22T07:33:00.865Z,59.18
2023-03-22T07:33:48.595Z,58.49
2023-03-22T07:34:35.547Z,58.69
2023-03-22T07:35:24.496Z,59.48
2023-03-22T07:36:13.128Z,58.33
2023-03-22T07:37:02.100Z,57.71
2023-03-22T07:37:49.099Z,57.48
2023-03-22T07:38:36.181Z,57.41
2023-03-22T07:39:25.019Z,57.47
2023-03-22T07:40:12.660Z,56.64
2023-03-22T07:40:59.529Z,57.68
2023-03-22T07:41:46.534Z,57.76
2023-03-22T07:42:37.126Z,57.54
2023-03-22T07:43:24.222Z,57.18
2023-03-22T07:44:17.607Z,57.41
2023-03-22T07:45:05.504Z,57.62
2023-03-22T07:45:53.351Z,57.18
2023-03-22T07:46:40.352Z,56.75
2023-03-22T07:47:40.437Z,56.61
2023-03-22T07:48:29.027Z,56.10
2023-03-22T07:49:16.012Z,55.59
2023-03-22T07:50:02.985Z,55.34
2023-03-22T07:50:50.404Z,55.08
2023-03-22T07:51:37.235Z,55.56
2023-03-22T07:52:24.085Z,55.31
2023-03-22T07:53:11.566Z,55.67
2023-03-22T07:53:58.466Z,55.51
2023-03-22T07:54:45.556Z,54.93
2023-03-22T07:55:32.356Z,54.73
2023-03-22T07:56:19.210Z,54.82
2023-03-22T07:57:06.967Z,54.70
2023-03-22T07:57:58.030Z,53.34
2023-03-22T07:58:44.993Z,53.32
2023-03-22T07:59:32.242Z,53.93
2023-03-22T08:00:19.547Z,53.95
2023-03-22T08:01:09.246Z,53.38
2023-03-22T08:01:56.161Z,53.94
2023-03-22T08:02:46.050Z,53.33
2023-03-22T08:03:35.221Z,53.74
2023-03-22T08:04:22.762Z,54.19
2023-03-22T08:05:09.868Z,53.82
2023-03-22T08:06:01.377Z,53.36
2023-03-22T08:06:49.321Z,53.35
2023-03-22T08:07:36.472Z,53.68
2023-03-22T08:08:23.392Z,53.38
2023-03-22T08:09:12.333Z,53.04
2023-03-22T08:09:59.401Z,53.36
2023-03-22T08:10:49.829Z,52.87
2023-03-22T08:11:36.947Z,52.20
2023-03-22T08:12:23.925Z,52.01
2023-03-22T08:13:10.776Z,51.93
2023-03-22T08:13:57.686Z,51.67
2023-03-22T08:14:48.400Z,51.91
2023-03-22T08:15:37.613Z,52.54
2023-03-22T08:16:24.573Z,52.68
2023-03-22T08:17:11.666Z,53.34
2023-03-22T08:17:58.634Z,53.54
2023-03-22T08:18:45.745Z,53.72
2023-03-22T08:19:34.006Z,52.96
2023-03-22T08:20:20.926Z,53.22
2023-03-22T08:21:08.057Z,52.62
2023-03-22T08:21:54.972Z,53.12
2023-03-22T08:22:42.634Z,52.37
2023-03-22T08:23:40.974Z,52.16
2023-03-22T08:24:28.563Z,51.29
2023-03-22T08:25:15.774Z,51.79
2023-03-22T08:26:02.859Z,50.94
2023-03-22T08:26:52.573Z,50.38
2023-03-22T08:27:39.592Z,50.87
2023-03-22T08:28:26.638Z,50.96
2023-03-22T08:29:13.515Z,51.44
2023-03-22T08:30:01.162Z,50.26
2023-03-22T08:30:48.886Z,50.90
2023-03-22T08:31:35.828Z,50.52
2023-03-22T08:32:22.688Z,49.56
2023-03-22T08:33:09.504Z,49.17
2023-03-22T08:33:56.424Z,49.25
2023-03-22T08:34:43.877Z,49.38
2023-03-22T08:35:32.908Z,49.41
2023-03-22T08:36:22.950Z,49.02
2023-03-22T08:37:11.242Z,48.78
2023-03-22T08:37:58.334Z,48.66
2023-03-22T08:38:45.574Z,48.20
2023-03-22T08:39:33.053Z,47.44
2023-03-22T08:40:20.125Z,47.06
2023-03-22T08:41:07.246Z,47.71
2023-03-22T08:41:54.115Z,48.25
2023-03-22T08:42:41.175Z,48.43
2023-03-22T08:43:28.096Z,48.65
2023-03-22T08:44:14.977Z,48.55
2023-03-22T08:45:01.923Z,47.61
2023-03-22T08:45:51.045Z,46.79
2023-03-22T08:46:37.935Z,47.14
2023-03-22T08:47:24.791Z,45.82
2023-03-22T08:48:11.779Z,45.65
2023-03-22T08:49:00.577Z,46.31
2023-03-22T08:49:47.432Z,46.79
2023-03-22T08:50:35.163Z,47.06
2023-03-22T08:51:23.199Z,46.53
2023-03-22T08:52:10.728Z,46.21
2023-03-22T08:52:58.265Z,45.51
2023-03-22T08:53:45.740Z,43.92
2023-03-22T08:54:37.550Z,44.13
2023-03-22T08:55:25.132Z,45.07
2023-03-22T08:56:15.136Z,45.17
2023-03-22T08:57:03.550Z,44.73
2023-03-22T08:57:50.775Z,45.30
2023-03-22T08:58:37.690Z,44.21
2023-03-22T08:59:24.605Z,43.98
2023-03-22T09:00:13.872Z,44.36
2023-03-22T09:01:00.920Z,44.46
2023-03-22T09:01:52.002Z,44.00
2023-03-22T09:02:38.902Z,44.45
2023-03-22T09:03:25.974Z,42.90
2023-03-22T09:04:12.873Z,42.76
2023-03-22T09:04:59.812Z,43.09
2023-03-22T09:05:46.954Z,43.44
2023-03-22T09:06:34.474Z,43.29
2023-03-22T09:07:21.677Z,42.38
2023-03-22T09:08:08.922Z,42.31
2023-03-22T09:08:56.389Z,43.40
2023-03-22T09:09:43.789Z,43.74
2023-03-22T09:10:30.732Z,43.30
2023-03-22T09:11:18.209Z,43.39
2023-03-22T09:12:05.476Z,42.97
2023-03-22T09:12:54.372Z,42.63
2023-03-22T09:13:41.254Z,43.12
2023-03-22T09:14:28.230Z,43.80
2023-03-22T09:15:15.232Z,43.84
2023-03-22T09:16:02.175Z,41.93
2023-03-22T09:16:49.152Z,41.87
2023-03-22T09:17:36.601Z,42.32
2023-03-22T09:18:28.664Z,42.17
2023-03-22T09:19:15.669Z,42.21
2023-03-22T09:20:12.149Z,41.90
2023-03-22T09:20:59.948Z,41.56
2023-03-22T09:21:46.771Z,41.88
2023-03-22T09:22:33.920Z,42.29
2023-03-22T09:23:21.011Z,41.13
2023-03-22T09:24:08.796Z,42.31
2023-03-22T09:24:55.711Z,41.86
2023-03-22T09:25:46.451Z,41.28
2023-03-22T09:26:33.247Z,41.25
2023-03-22T09:27:20.132Z,41.32
2023-03-22T09:28:07.167Z,40.97
2023-03-22T09:28:56.221Z,40.98
2023-03-22T09:29:43.130Z,40.87
2023-03-22T09:30:30.562Z,41.35
2023-03-22T09:31:20.350Z,42.14
2023-03-22T09:32:07.509Z,41.50
2023-03-22T09:32:54.998Z,41.75
2023-03-22T09:33:42.404Z,41.35
2023-03-22T09:34:29.544Z,40.72
2023-03-22T09:35:16.770Z,40.94
2023-03-22T09:36:04.274Z,41.06
2023-03-22T09:36:53.002Z,39.91
2023-03-22T09:37:39.948Z,40.77
2023-03-22T09:38:27.476Z,41.19
2023-03-22T09:39:16.643Z,40.65
2023-03-22T09:40:06.031Z,41.00
2023-03-22T09:41:01.808Z,40.33
2023-03-22T09:42:01.359Z,40.13
2023-03-22T09:42:53.009Z,40.21
2023-03-22T09:43:42.851Z,40.36
2023-03-22T09:44:29.696Z,40.06
2023-03-22T09:45:27.282Z,40.58
2023-03-22T09:46:17.566Z,39.73
2023-03-22T09:47:05.933Z,39.58
2023-03-22T09:47:54.960Z,40.26
2023-03-22T09:48:43.227Z,40.32
2023-03-22T09:49:47.214Z,40.28
2023-03-22T09:50:45.479Z,40.34
2023-03-22T09:51:48.477Z,40.17
2023-03-22T09:52:35.483Z,40.43
2023-03-22T09:53:24.736Z,40.48
2023-03-22T09:54:25.429Z,39.68
2023-03-22T09:55:38.386Z,40.41
2023-03-22T09:56:28.110Z,40.77
2023-03-22T09:57:37.476Z,39.91
2023-03-22T09:58:51.147Z,40.29
2023-03-22T09:59:46.886Z,40.35
2023-03-22T10:01:28.869Z,40.06
2023-03-22T10:02:44.402Z,41.02
2023-03-22T10:04:02.442Z,41.25
2023-03-22T10:05:18.597Z,41.03
2023-03-22T10:06:06.166Z,41.22
2023-03-22T10:07:04.390Z,40.53
2023-03-22T10:08:12.730Z,40.78
2023-03-22T10:09:11.179Z,40.65
2023-03-22T10:10:08.900Z,41.16
2023-03-22T10:10:57.929Z,41.38
2023-03-22T10:11:47.485Z,40.88
2023-03-22T10:12:56.577Z,40.91
2023-03-22T10:13:56.605Z,40.99
2023-03-22T10:14:53.350Z,40.95
2023-03-22T10:15:56.095Z,41.33
2023-03-22T10:16:43.698Z,41.14
2023-03-22T10:17:30.968Z,41.18
2023-03-22T10:18:26.731Z,41.11
2023-03-22T10:19:35.923Z,40.64
2023-03-22T10:20:49.937Z,41.22
2023-03-22T10:21:36.959Z,40.06
2023-03-22T10:22:31.610Z,40.04
2023-03-22T10:23:35.444Z,39.99
2023-03-22T10:24:30.284Z,39.84
2023-03-22T10:25:22.625Z,39.62
2023-03-22T10:26:17.842Z,40.00
2023-03-22T10:27:13.901Z,39.26
2023-03-22T10:28:00.918Z,39.64
2023-03-22T10:28:53.597Z,40.63
2023-03-22T10:29:43.950Z,39.74
2023-03-22T10:30:34.992Z,40.23
2023-03-22T10:31:22.345Z,40.05
2023-03-22T10:32:56.436Z,40.02
2023-03-22T10:33:53.428Z,41.75
2023-03-22T10:34:40.483Z,40.79
2023-03-22T10:35:28.039Z,40.23
2023-03-22T10:36:16.716Z,40.55
2023-03-22T10:37:04.608Z,40.59
2023-03-22T10:37:52.192Z,40.39
2023-03-22T10:38:48.915Z,40.35
2023-03-22T10:39:40.089Z,39.89
2023-03-22T10:40:29.909Z,39.50
2023-03-22T10:41:18.759Z,38.95
2023-03-22T10:42:16.379Z,39.27
2023-03-22T10:43:06.619Z,39.57
2023-03-22T10:43:59.229Z,39.74
2023-03-22T10:44:51.748Z,39.62
2023-03-22T10:45:40.358Z,40.91
2023-03-22T10:46:36.313Z,39.33
2023-03-22T10:47:48.907Z,39.72